Pico dos Marins, Brazil
Current Conditions -  °F | °C
As of 2:00 PM on Wednesday 26 Nov 2014 (Local Time) from SBGW Reporting Station
Broken Clouds Broken Clouds  
Wind Chill: 86°   Ceiling: 4800
Heat Index: 87°   Visibility: 6mi
Dew Point: 64°   Wind: 2mph
Humidity: 48%   Direction: 50°NE
Pressure: 29.8"   Gusts: NA
Location:  22.51°S, 45.28°W
Report Text: SBGW 261600Z 05002KT 9999 SCT020 BKN048 30/18 Q1009
Loading
Personal Weather Stations






























Interactive Weather Map New forecast layout! Learn more

10-Day Weather Forecast

Advertisements
Track Severe Weather on mobile